sensor_id;sensor_type;location;lat;lon;timestamp;temperature;humidity
68248;SHT30;55064;49.636;12.164;2023-07-31T00:00:23;13.33;86.64
68248;SHT30;55064;49.636;12.164;2023-07-31T00:06:42;13.55;85.62
68248;SHT30;55064;49.636;12.164;2023-07-31T00:09:34;13.41;86.09
68248;SHT30;55064;49.636;12.164;2023-07-31T00:12:08;13.41;85.97
68248;SHT30;55064;49.636;12.164;2023-07-31T00:15:10;13.45;85.72
68248;SHT30;55064;49.636;12.164;2023-07-31T00:24:16;13.43;85.04
68248;SHT30;55064;49.636;12.164;2023-07-31T00:26:43;13.41;84.75
68248;SHT30;55064;49.636;12.164;2023-07-31T00:29:22;13.44;84.81
68248;SHT30;55064;49.636;12.164;2023-07-31T00:35:04;13.33;85.95
68248;SHT30;55064;49.636;12.164;2023-07-31T00:37:50;13.19;86.12
68248;SHT30;55064;49.636;12.164;2023-07-31T00:40:15;13.13;86.36
68248;SHT30;55064;49.636;12.164;2023-07-31T00:42:48;13.10;86.76
68248;SHT30;55064;49.636;12.164;2023-07-31T00:45:15;13.06;86.86
68248;SHT30;55064;49.636;12.164;2023-07-31T00:51:26;12.95;87.17
68248;SHT30;55064;49.636;12.164;2023-07-31T00:57:13;13.04;86.35
68248;SHT30;55064;49.636;12.164;2023-07-31T01:03:00;13.14;86.32
68248;SHT30;55064;49.636;12.164;2023-07-31T01:08:58;13.17;85.83
68248;SHT30;55064;49.636;12.164;2023-07-31T01:18:00;13.64;83.37
68248;SHT30;55064;49.636;12.164;2023-07-31T01:42:38;13.43;84.39
68248;SHT30;55064;49.636;12.164;2023-07-31T01:48:27;13.47;83.31
68248;SHT30;55064;49.636;12.164;2023-07-31T01:51:00;13.48;83.25
68248;SHT30;55064;49.636;12.164;2023-07-31T01:56:47;13.57;83.03
68248;SHT30;55064;49.636;12.164;2023-07-31T02:02:34;13.59;82.85
68248;SHT30;55064;49.636;12.164;2023-07-31T02:14:52;13.82;82.64
68248;SHT30;55064;49.636;12.164;2023-07-31T02:17:33;13.72;82.55
68248;SHT30;55064;49.636;12.164;2023-07-31T02:20:28;13.72;82.62
68248;SHT30;55064;49.636;12.164;2023-07-31T02:26:19;13.85;82.78
68248;SHT30;55064;49.636;12.164;2023-07-31T02:32:06;13.92;82.68
68248;SHT30;55064;49.636;12.164;2023-07-31T02:44:24;14.09;80.80
68248;SHT30;55064;49.636;12.164;2023-07-31T02:53:34;14.17;80.85
68248;SHT30;55064;49.636;12.164;2023-07-31T02:59:21;14.19;80.87
68248;SHT30;55064;49.636;12.164;2023-07-31T03:05:18;14.17;80.99
68248;SHT30;55064;49.636;12.164;2023-07-31T03:07:45;14.20;81.12
68248;SHT30;55064;49.636;12.164;2023-07-31T03:13:32;14.17;80.91
68248;SHT30;55064;49.636;12.164;2023-07-31T03:23:08;14.19;81.00
68248;SHT30;55064;49.636;12.164;2023-07-31T03:28:55;14.23;81.10
68248;SHT30;55064;49.636;12.164;2023-07-31T03:35:21;14.12;81.50
68248;SHT30;55064;49.636;12.164;2023-07-31T03:47:52;14.03;82.25
68248;SHT30;55064;49.636;12.164;2023-07-31T03:53:40;14.12;82.45
68248;SHT30;55064;49.636;12.164;2023-07-31T03:56:08;14.09;82.35
68248;SHT30;55064;49.636;12.164;2023-07-31T03:58:34;14.09;82.10
68248;SHT30;55064;49.636;12.164;2023-07-31T04:04:23;14.08;82.09
68248;SHT30;55064;49.636;12.164;2023-07-31T04:07:07;14.10;82.18
68248;SHT30;55064;49.636;12.164;2023-07-31T04:09:33;14.10;82.23
68248;SHT30;55064;49.636;12.164;2023-07-31T04:12:00;14.16;82.14
68248;SHT30;55064;49.636;12.164;2023-07-31T04:14:42;14.10;82.30
68248;SHT30;55064;49.636;12.164;2023-07-31T04:17:28;14.20;82.41
68248;SHT30;55064;49.636;12.164;2023-07-31T04:23:15;14.27;81.62
68248;SHT30;55064;49.636;12.164;2023-07-31T04:25:58;14.33;81.63
68248;SHT30;55064;49.636;12.164;2023-07-31T04:34:56;14.44;81.05
68248;SHT30;55064;49.636;12.164;2023-07-31T04:37:30;14.48;81.12
68248;SHT30;55064;49.636;12.164;2023-07-31T04:40:11;14.48;81.10
68248;SHT30;55064;49.636;12.164;2023-07-31T04:49:20;14.64;80.96
68248;SHT30;55064;49.636;12.164;2023-07-31T04:58:29;14.98;79.64
68248;SHT30;55064;49.636;12.164;2023-07-31T05:04:54;15.18;78.76
68248;SHT30;55064;49.636;12.164;2023-07-31T05:07:21;15.23;78.39
68248;SHT30;55064;49.636;12.164;2023-07-31T05:09:48;15.23;78.52
68248;SHT30;55064;49.636;12.164;2023-07-31T05:12:46;15.29;78.35
68248;SHT30;55064;49.636;12.164;2023-07-31T05:18:34;15.24;78.11
68248;SHT30;55064;49.636;12.164;2023-07-31T05:27:45;15.36;78.50
68248;SHT30;55064;49.636;12.164;2023-07-31T05:36:56;15.46;78.68
68248;SHT30;55064;49.636;12.164;2023-07-31T05:56:49;16.09;76.51
68248;SHT30;55064;49.636;12.164;2023-07-31T05:59:15;16.16;76.46
68248;SHT30;55064;49.636;12.164;2023-07-31T06:01:41;16.22;76.66
68248;SHT30;55064;49.636;12.164;2023-07-31T06:04:06;16.20;76.57
68248;SHT30;55064;49.636;12.164;2023-07-31T06:06:33;16.17;76.49
68248;SHT30;55064;49.636;12.164;2023-07-31T06:09:00;16.10;76.68
68248;SHT30;55064;49.636;12.164;2023-07-31T06:11:26;16.15;76.23
68248;SHT30;55064;49.636;12.164;2023-07-31T06:14:03;16.22;76.51
68248;SHT30;55064;49.636;12.164;2023-07-31T06:16:52;16.32;76.55
68248;SHT30;55064;49.636;12.164;2023-07-31T06:19:42;16.43;76.46
68248;SHT30;55064;49.636;12.164;2023-07-31T06:22:07;16.53;76.20
68248;SHT30;55064;49.636;12.164;2023-07-31T06:27:54;16.57;75.64
68248;SHT30;55064;49.636;12.164;2023-07-31T06:33:32;16.87;74.53
68248;SHT30;55064;49.636;12.164;2023-07-31T06:35:58;16.96;74.28
68248;SHT30;55064;49.636;12.164;2023-07-31T06:38:39;16.99;73.77
68248;SHT30;55064;49.636;12.164;2023-07-31T06:41:11;17.18;74.27
68248;SHT30;55064;49.636;12.164;2023-07-31T06:43:39;17.39;73.41
68248;SHT30;55064;49.636;12.164;2023-07-31T06:49:12;17.47;72.78
68248;SHT30;55064;49.636;12.164;2023-07-31T06:52:12;17.60;72.02
68248;SHT30;55064;49.636;12.164;2023-07-31T06:58:27;17.80;73.29
68248;SHT30;55064;49.636;12.164;2023-07-31T07:01:24;17.92;72.69
68248;SHT30;55064;49.636;12.164;2023-07-31T07:03:55;17.95;71.69
68248;SHT30;55064;49.636;12.164;2023-07-31T07:06:37;17.94;71.35
68248;SHT30;55064;49.636;12.164;2023-07-31T07:12:24;17.92;70.91
68248;SHT30;55064;49.636;12.164;2023-07-31T07:15:04;18.13;70.12
68248;SHT30;55064;49.636;12.164;2023-07-31T07:21:15;18.09;69.72
68248;SHT30;55064;49.636;12.164;2023-07-31T07:27:13;18.54;70.00
68248;SHT30;55064;49.636;12.164;2023-07-31T07:30:10;18.50;69.73
68248;SHT30;55064;49.636;12.164;2023-07-31T07:32:41;18.65;69.29
68248;SHT30;55064;49.636;12.164;2023-07-31T07:35:08;18.63;70.25
68248;SHT30;55064;49.636;12.164;2023-07-31T07:37:35;18.59;69.02
68248;SHT30;55064;49.636;12.164;2023-07-31T07:40:01;18.57;69.42
68248;SHT30;55064;49.636;12.164;2023-07-31T07:42:26;18.65;69.13
68248;SHT30;55064;49.636;12.164;2023-07-31T07:44:56;18.68;69.78
68248;SHT30;55064;49.636;12.164;2023-07-31T07:47:31;18.75;69.98
68248;SHT30;55064;49.636;12.164;2023-07-31T07:50:12;18.77;69.53
68248;SHT30;55064;49.636;12.164;2023-07-31T07:52:49;18.64;69.12
68248;SHT30;55064;49.636;12.164;2023-07-31T07:58:36;18.71;68.80
68248;SHT30;55064;49.636;12.164;2023-07-31T08:01:01;18.71;69.40
68248;SHT30;55064;49.636;12.164;2023-07-31T08:06:49;18.65;68.91
68248;SHT30;55064;49.636;12.164;2023-07-31T08:09:25;18.64;68.51
68248;SHT30;55064;49.636;12.164;2023-07-31T08:11:54;18.68;68.47
68248;SHT30;55064;49.636;12.164;2023-07-31T08:14:22;18.68;68.80
68248;SHT30;55064;49.636;12.164;2023-07-31T08:16:48;18.67;68.87
68248;SHT30;55064;49.636;12.164;2023-07-31T08:19:14;18.54;68.66
68248;SHT30;55064;49.636;12.164;2023-07-31T08:21:39;18.52;68.96
68248;SHT30;55064;49.636;12.164;2023-07-31T08:24:07;18.65;69.00
68248;SHT30;55064;49.636;12.164;2023-07-31T08:26:33;18.61;68.54
68248;SHT30;55064;49.636;12.164;2023-07-31T08:29:01;18.78;68.32
68248;SHT30;55064;49.636;12.164;2023-07-31T08:31:27;18.92;67.53
68248;SHT30;55064;49.636;12.164;2023-07-31T08:33:57;18.99;67.34
68248;SHT30;55064;49.636;12.164;2023-07-31T08:36:23;19.07;67.65
68248;SHT30;55064;49.636;12.164;2023-07-31T08:38:48;19.04;67.77
68248;SHT30;55064;49.636;12.164;2023-07-31T08:41:15;19.11;67.27
68248;SHT30;55064;49.636;12.164;2023-07-31T08:43:44;18.97;67.28
68248;SHT30;55064;49.636;12.164;2023-07-31T08:46:10;19.14;67.26
68248;SHT30;55064;49.636;12.164;2023-07-31T08:48:37;19.32;67.32
68248;SHT30;55064;49.636;12.164;2023-07-31T08:51:03;19.54;67.40
68248;SHT30;55064;49.636;12.164;2023-07-31T08:53:31;19.66;66.52
68248;SHT30;55064;49.636;12.164;2023-07-31T08:55:58;19.75;65.85
68248;SHT30;55064;49.636;12.164;2023-07-31T08:58:24;19.78;65.46
68248;SHT30;55064;49.636;12.164;2023-07-31T09:00:50;19.74;66.05
68248;SHT30;55064;49.636;12.164;2023-07-31T09:03:17;19.83;65.81
68248;SHT30;55064;49.636;12.164;2023-07-31T09:05:46;20.19;66.02
68248;SHT30;55064;49.636;12.164;2023-07-31T09:08:18;20.25;64.44
68248;SHT30;55064;49.636;12.164;2023-07-31T09:10:45;20.35;63.87
68248;SHT30;55064;49.636;12.164;2023-07-31T09:13:15;20.17;63.95
68248;SHT30;55064;49.636;12.164;2023-07-31T09:15:43;20.67;63.19
68248;SHT30;55064;49.636;12.164;2023-07-31T09:18:10;20.62;62.65
68248;SHT30;55064;49.636;12.164;2023-07-31T09:20:36;20.65;63.24
68248;SHT30;55064;49.636;12.164;2023-07-31T09:25:32;20.70;62.68
68248;SHT30;55064;49.636;12.164;2023-07-31T09:27:59;20.67;61.91
68248;SHT30;55064;49.636;12.164;2023-07-31T09:30:30;20.65;62.81
68248;SHT30;55064;49.636;12.164;2023-07-31T09:33:03;20.66;62.69
68248;SHT30;55064;49.636;12.164;2023-07-31T09:35:31;20.28;63.30
68248;SHT30;55064;49.636;12.164;2023-07-31T09:38:20;20.52;62.75
68248;SHT30;55064;49.636;12.164;2023-07-31T09:40:48;20.59;63.36
68248;SHT30;55064;49.636;12.164;2023-07-31T09:43:19;20.69;63.48
68248;SHT30;55064;49.636;12.164;2023-07-31T09:45:45;20.60;63.08
68248;SHT30;55064;49.636;12.164;2023-07-31T09:50:39;20.59;63.03
68248;SHT30;55064;49.636;12.164;2023-07-31T09:53:08;20.57;62.36
68248;SHT30;55064;49.636;12.164;2023-07-31T09:55:36;20.70;62.40
68248;SHT30;55064;49.636;12.164;2023-07-31T09:58:08;20.65;62.55
68248;SHT30;55064;49.636;12.164;2023-07-31T10:00:35;20.73;62.86
68248;SHT30;55064;49.636;12.164;2023-07-31T10:03:05;20.76;63.17
68248;SHT30;55064;49.636;12.164;2023-07-31T10:05:53;20.67;62.54
68248;SHT30;55064;49.636;12.164;2023-07-31T10:08:21;21.07;61.42
68248;SHT30;55064;49.636;12.164;2023-07-31T10:10:48;20.93;61.03
68248;SHT30;55064;49.636;12.164;2023-07-31T10:13:14;21.22;62.39
68248;SHT30;55064;49.636;12.164;2023-07-31T10:15:43;21.25;61.29
68248;SHT30;55064;49.636;12.164;2023-07-31T10:18:18;21.46;61.31
68248;SHT30;55064;49.636;12.164;2023-07-31T10:20:47;21.72;60.16
68248;SHT30;55064;49.636;12.164;2023-07-31T10:23:12;22.12;59.91
68248;SHT30;55064;49.636;12.164;2023-07-31T10:25:38;22.49;58.24
68248;SHT30;55064;49.636;12.164;2023-07-31T10:28:06;22.00;60.01
68248;SHT30;55064;49.636;12.164;2023-07-31T10:30:32;21.49;61.16
68248;SHT30;55064;49.636;12.164;2023-07-31T10:33:03;21.28;61.00
68248;SHT30;55064;49.636;12.164;2023-07-31T10:35:30;21.18;61.07
68248;SHT30;55064;49.636;12.164;2023-07-31T10:38:09;21.48;61.36
68248;SHT30;55064;49.636;12.164;2023-07-31T10:40:35;21.57;60.47
68248;SHT30;55064;49.636;12.164;2023-07-31T10:43:04;21.60;59.75
68248;SHT30;55064;49.636;12.164;2023-07-31T10:45:35;21.57;59.01
68248;SHT30;55064;49.636;12.164;2023-07-31T10:50:55;22.07;58.04
68248;SHT30;55064;49.636;12.164;2023-07-31T10:53:25;22.15;56.88
68248;SHT30;55064;49.636;12.164;2023-07-31T10:55:56;22.08;56.71
68248;SHT30;55064;49.636;12.164;2023-07-31T10:58:26;22.49;55.90
68248;SHT30;55064;49.636;12.164;2023-07-31T11:00:55;22.77;56.39
68248;SHT30;55064;49.636;12.164;2023-07-31T11:03:25;22.99;55.67
68248;SHT30;55064;49.636;12.164;2023-07-31T11:06:01;22.65;55.43
68248;SHT30;55064;49.636;12.164;2023-07-31T11:08:32;23.18;53.64
68248;SHT30;55064;49.636;12.164;2023-07-31T11:13:40;23.14;53.53
68248;SHT30;55064;49.636;12.164;2023-07-31T11:16:07;23.11;55.23
68248;SHT30;55064;49.636;12.164;2023-07-31T11:18:32;23.23;53.98
68248;SHT30;55064;49.636;12.164;2023-07-31T11:20:59;22.77;53.86
68248;SHT30;55064;49.636;12.164;2023-07-31T11:23:24;22.65;54.13
68248;SHT30;55064;49.636;12.164;2023-07-31T11:25:50;22.49;55.33
68248;SHT30;55064;49.636;12.164;2023-07-31T11:28:19;22.38;55.36
68248;SHT30;55064;49.636;12.164;2023-07-31T11:30:45;22.45;55.27
68248;SHT30;55064;49.636;12.164;2023-07-31T11:33:12;22.66;55.28
68248;SHT30;55064;49.636;12.164;2023-07-31T11:35:45;22.41;55.03
68248;SHT30;55064;49.636;12.164;2023-07-31T11:38:27;22.59;55.27
68248;SHT30;55064;49.636;12.164;2023-07-31T11:40:55;22.34;55.75
68248;SHT30;55064;49.636;12.164;2023-07-31T11:43:21;22.42;56.47
68248;SHT30;55064;49.636;12.164;2023-07-31T11:45:49;22.53;56.76
68248;SHT30;55064;49.636;12.164;2023-07-31T11:48:26;22.60;55.99
68248;SHT30;55064;49.636;12.164;2023-07-31T11:51:02;22.53;56.14
68248;SHT30;55064;49.636;12.164;2023-07-31T11:56:02;22.60;55.97
68248;SHT30;55064;49.636;12.164;2023-07-31T11:58:31;22.65;56.34
68248;SHT30;55064;49.636;12.164;2023-07-31T12:00:57;22.47;55.76
68248;SHT30;55064;49.636;12.164;2023-07-31T12:03:26;22.17;56.99
68248;SHT30;55064;49.636;12.164;2023-07-31T12:05:53;22.41;57.09
68248;SHT30;55064;49.636;12.164;2023-07-31T12:08:23;22.42;57.54
68248;SHT30;55064;49.636;12.164;2023-07-31T12:10:53;22.45;57.47
68248;SHT30;55064;49.636;12.164;2023-07-31T12:13:24;22.47;57.19
68248;SHT30;55064;49.636;12.164;2023-07-31T12:16:03;22.45;57.36
68248;SHT30;55064;49.636;12.164;2023-07-31T12:18:33;22.53;57.18
68248;SHT30;55064;49.636;12.164;2023-07-31T12:21:00;22.35;57.25
68248;SHT30;55064;49.636;12.164;2023-07-31T12:23:28;22.32;57.67
68248;SHT30;55064;49.636;12.164;2023-07-31T12:28:48;22.25;57.95
68248;SHT30;55064;49.636;12.164;2023-07-31T12:31:19;22.34;58.08
68248;SHT30;55064;49.636;12.164;2023-07-31T12:33:46;22.59;56.91
68248;SHT30;55064;49.636;12.164;2023-07-31T12:39:33;22.73;57.17
68248;SHT30;55064;49.636;12.164;2023-07-31T12:42:00;22.75;57.02
68248;SHT30;55064;49.636;12.164;2023-07-31T12:44:26;22.76;56.15
68248;SHT30;55064;49.636;12.164;2023-07-31T12:46:52;22.83;55.92
68248;SHT30;55064;49.636;12.164;2023-07-31T12:49:17;22.94;55.86
68248;SHT30;55064;49.636;12.164;2023-07-31T12:51:42;23.03;55.16
68248;SHT30;55064;49.636;12.164;2023-07-31T12:54:08;23.13;55.05
68248;SHT30;55064;49.636;12.164;2023-07-31T12:56:34;22.90;54.86
68248;SHT30;55064;49.636;12.164;2023-07-31T12:59:00;22.96;55.26
68248;SHT30;55064;49.636;12.164;2023-07-31T13:01:25;23.06;55.46
68248;SHT30;55064;49.636;12.164;2023-07-31T13:03:52;22.80;56.24
68248;SHT30;55064;49.636;12.164;2023-07-31T13:06:18;22.86;56.09
68248;SHT30;55064;49.636;12.164;2023-07-31T13:09:07;23.10;55.83
68248;SHT30;55064;49.636;12.164;2023-07-31T13:11:33;23.37;55.50
68248;SHT30;55064;49.636;12.164;2023-07-31T13:14:27;23.17;55.01
68248;SHT30;55064;49.636;12.164;2023-07-31T13:20:17;23.25;54.07
68248;SHT30;55064;49.636;12.164;2023-07-31T13:22:45;23.66;54.75
68248;SHT30;55064;49.636;12.164;2023-07-31T13:25:14;23.86;54.43
68248;SHT30;55064;49.636;12.164;2023-07-31T13:27:46;23.65;54.04
68248;SHT30;55064;49.636;12.164;2023-07-31T13:30:11;24.00;53.14
68248;SHT30;55064;49.636;12.164;2023-07-31T13:32:39;24.12;52.44
68248;SHT30;55064;49.636;12.164;2023-07-31T13:35:08;24.06;52.00
68248;SHT30;55064;49.636;12.164;2023-07-31T13:37:33;23.99;52.19
68248;SHT30;55064;49.636;12.164;2023-07-31T13:40:04;24.28;52.06
68248;SHT30;55064;49.636;12.164;2023-07-31T13:42:30;24.12;52.55
68248;SHT30;55064;49.636;12.164;2023-07-31T13:44:56;24.25;52.17
68248;SHT30;55064;49.636;12.164;2023-07-31T13:47:25;24.27;52.39
68248;SHT30;55064;49.636;12.164;2023-07-31T13:49:50;24.50;52.13
68248;SHT30;55064;49.636;12.164;2023-07-31T13:52:25;24.88;51.73
68248;SHT30;55064;49.636;12.164;2023-07-31T13:54:50;24.83;51.54
68248;SHT30;55064;49.636;12.164;2023-07-31T13:57:17;24.28;52.08
68248;SHT30;55064;49.636;12.164;2023-07-31T13:59:42;24.41;52.41
68248;SHT30;55064;49.636;12.164;2023-07-31T14:02:10;24.50;51.81
68248;SHT30;55064;49.636;12.164;2023-07-31T14:05:11;24.21;52.65
68248;SHT30;55064;49.636;12.164;2023-07-31T14:07:44;23.80;52.89
68248;SHT30;55064;49.636;12.164;2023-07-31T14:10:21;23.72;53.55
68248;SHT30;55064;49.636;12.164;2023-07-31T14:12:47;23.76;53.51
68248;SHT30;55064;49.636;12.164;2023-07-31T14:15:13;24.07;53.02
68248;SHT30;55064;49.636;12.164;2023-07-31T14:21:14;24.82;51.71
68248;SHT30;55064;49.636;12.164;2023-07-31T14:23:51;24.62;51.19
68248;SHT30;55064;49.636;12.164;2023-07-31T14:26:17;24.06;53.19
68248;SHT30;55064;49.636;12.164;2023-07-31T14:28:45;24.18;53.26
68248;SHT30;55064;49.636;12.164;2023-07-31T14:31:12;24.37;53.05
68248;SHT30;55064;49.636;12.164;2023-07-31T14:33:43;24.44;51.64
68248;SHT30;55064;49.636;12.164;2023-07-31T14:36:18;24.61;52.12
68248;SHT30;55064;49.636;12.164;2023-07-31T14:39:02;24.44;52.02
68248;SHT30;55064;49.636;12.164;2023-07-31T14:41:39;24.12;53.64
68248;SHT30;55064;49.636;12.164;2023-07-31T14:44:22;24.21;53.05
68248;SHT30;55064;49.636;12.164;2023-07-31T14:47:06;24.57;52.62
68248;SHT30;55064;49.636;12.164;2023-07-31T14:50:03;24.45;53.72
68248;SHT30;55064;49.636;12.164;2023-07-31T14:52:54;24.20;53.07
68248;SHT30;55064;49.636;12.164;2023-07-31T14:55:32;24.00;54.17
68248;SHT30;55064;49.636;12.164;2023-07-31T14:58:01;23.54;55.35
68248;SHT30;55064;49.636;12.164;2023-07-31T15:00:46;23.70;55.14
68248;SHT30;55064;49.636;12.164;2023-07-31T15:06:35;24.33;55.26
68248;SHT30;55064;49.636;12.164;2023-07-31T15:15:44;23.52;55.70
68248;SHT30;55064;49.636;12.164;2023-07-31T15:21:30;23.59;55.50
68248;SHT30;55064;49.636;12.164;2023-07-31T15:27:24;23.51;54.55
68248;SHT30;55064;49.636;12.164;2023-07-31T15:29:58;23.54;54.08
68248;SHT30;55064;49.636;12.164;2023-07-31T15:36:11;23.57;54.68
68248;SHT30;55064;49.636;12.164;2023-07-31T15:38:47;23.34;54.99
68248;SHT30;55064;49.636;12.164;2023-07-31T15:41:33;23.38;55.26
68248;SHT30;55064;49.636;12.164;2023-07-31T15:44:26;23.49;55.09
68248;SHT30;55064;49.636;12.164;2023-07-31T15:46:52;23.47;55.61
68248;SHT30;55064;49.636;12.164;2023-07-31T15:49:18;23.55;55.63
68248;SHT30;55064;49.636;12.164;2023-07-31T15:51:46;23.49;55.14
68248;SHT30;55064;49.636;12.164;2023-07-31T15:54:13;23.25;55.00
68248;SHT30;55064;49.636;12.164;2023-07-31T15:56:41;23.31;55.23
68248;SHT30;55064;49.636;12.164;2023-07-31T15:59:06;23.34;55.39
68248;SHT30;55064;49.636;12.164;2023-07-31T16:01:31;23.23;55.52
68248;SHT30;55064;49.636;12.164;2023-07-31T16:03:58;23.15;55.94
68248;SHT30;55064;49.636;12.164;2023-07-31T16:06:23;23.13;55.34
68248;SHT30;55064;49.636;12.164;2023-07-31T16:08:49;23.11;55.92
68248;SHT30;55064;49.636;12.164;2023-07-31T16:11:17;23.24;56.23
68248;SHT30;55064;49.636;12.164;2023-07-31T16:13:47;23.06;55.84
68248;SHT30;55064;49.636;12.164;2023-07-31T16:16:12;23.03;55.96
68248;SHT30;55064;49.636;12.164;2023-07-31T16:18:37;23.10;55.77
68248;SHT30;55064;49.636;12.164;2023-07-31T16:21:09;22.90;56.60
68248;SHT30;55064;49.636;12.164;2023-07-31T16:23:37;22.96;56.30
68248;SHT30;55064;49.636;12.164;2023-07-31T16:26:06;22.92;57.36
68248;SHT30;55064;49.636;12.164;2023-07-31T16:28:34;22.87;57.17
68248;SHT30;55064;49.636;12.164;2023-07-31T16:30:59;22.82;56.72
68248;SHT30;55064;49.636;12.164;2023-07-31T16:33:24;22.59;56.26
68248;SHT30;55064;49.636;12.164;2023-07-31T16:35:53;22.68;57.23
68248;SHT30;55064;49.636;12.164;2023-07-31T16:38:18;22.59;57.29
68248;SHT30;55064;49.636;12.164;2023-07-31T16:40:44;22.52;56.87
68248;SHT30;55064;49.636;12.164;2023-07-31T16:43:12;22.63;57.03
68248;SHT30;55064;49.636;12.164;2023-07-31T16:45:40;22.69;56.92
68248;SHT30;55064;49.636;12.164;2023-07-31T16:48:07;22.73;56.41
68248;SHT30;55064;49.636;12.164;2023-07-31T16:50:33;22.51;57.32
68248;SHT30;55064;49.636;12.164;2023-07-31T16:52:58;22.39;57.45
68248;SHT30;55064;49.636;12.164;2023-07-31T16:55:26;22.42;57.98
68248;SHT30;55064;49.636;12.164;2023-07-31T16:57:52;22.37;57.94
68248;SHT30;55064;49.636;12.164;2023-07-31T17:00:21;22.34;57.69
68248;SHT30;55064;49.636;12.164;2023-07-31T17:02:49;22.38;57.41
68248;SHT30;55064;49.636;12.164;2023-07-31T17:05:15;22.44;56.51
68248;SHT30;55064;49.636;12.164;2023-07-31T17:07:40;22.58;56.48
68248;SHT30;55064;49.636;12.164;2023-07-31T17:10:06;22.51;56.17
68248;SHT30;55064;49.636;12.164;2023-07-31T17:12:33;22.63;56.63
68248;SHT30;55064;49.636;12.164;2023-07-31T17:14:59;22.58;57.78
68248;SHT30;55064;49.636;12.164;2023-07-31T17:17:28;22.62;58.14
68248;SHT30;55064;49.636;12.164;2023-07-31T17:19:53;22.70;58.17
68248;SHT30;55064;49.636;12.164;2023-07-31T17:22:25;22.73;57.75
68248;SHT30;55064;49.636;12.164;2023-07-31T17:24:50;22.76;56.83
68248;SHT30;55064;49.636;12.164;2023-07-31T17:27:16;22.62;57.37
68248;SHT30;55064;49.636;12.164;2023-07-31T17:29:41;22.55;56.94
68248;SHT30;55064;49.636;12.164;2023-07-31T17:32:09;22.27;57.08
68248;SHT30;55064;49.636;12.164;2023-07-31T17:34:34;22.31;57.77
68248;SHT30;55064;49.636;12.164;2023-07-31T17:37:04;22.24;57.38
68248;SHT30;55064;49.636;12.164;2023-07-31T17:39:32;22.12;57.14
68248;SHT30;55064;49.636;12.164;2023-07-31T17:42:06;22.12;56.65
68248;SHT30;55064;49.636;12.164;2023-07-31T17:44:32;22.17;57.04
68248;SHT30;55064;49.636;12.164;2023-07-31T17:46:59;22.03;57.00
68248;SHT30;55064;49.636;12.164;2023-07-31T17:49:24;21.92;57.35
68248;SHT30;55064;49.636;12.164;2023-07-31T17:51:56;21.92;57.66
68248;SHT30;55064;49.636;12.164;2023-07-31T17:54:22;21.89;58.08
68248;SHT30;55064;49.636;12.164;2023-07-31T17:56:51;21.90;58.02
68248;SHT30;55064;49.636;12.164;2023-07-31T17:59:16;21.92;57.87
68248;SHT30;55064;49.636;12.164;2023-07-31T18:01:42;21.84;57.97
68248;SHT30;55064;49.636;12.164;2023-07-31T18:04:07;21.83;57.81
68248;SHT30;55064;49.636;12.164;2023-07-31T18:06:37;21.75;58.29
68248;SHT30;55064;49.636;12.164;2023-07-31T18:09:03;21.75;58.54
68248;SHT30;55064;49.636;12.164;2023-07-31T18:11:33;21.60;58.82
68248;SHT30;55064;49.636;12.164;2023-07-31T18:14:00;21.53;59.48
68248;SHT30;55064;49.636;12.164;2023-07-31T18:16:36;21.53;59.59
68248;SHT30;55064;49.636;12.164;2023-07-31T18:19:04;21.53;59.81
68248;SHT30;55064;49.636;12.164;2023-07-31T18:21:29;21.53;59.99
68248;SHT30;55064;49.636;12.164;2023-07-31T18:23:57;21.37;60.24
68248;SHT30;55064;49.636;12.164;2023-07-31T18:26:24;21.35;60.05
68248;SHT30;55064;49.636;12.164;2023-07-31T18:28:49;21.27;60.18
68248;SHT30;55064;49.636;12.164;2023-07-31T18:31:16;21.28;59.96
68248;SHT30;55064;49.636;12.164;2023-07-31T18:33:42;21.29;60.27
68248;SHT30;55064;49.636;12.164;2023-07-31T18:36:10;21.27;60.17
68248;SHT30;55064;49.636;12.164;2023-07-31T18:38:36;21.28;60.50
68248;SHT30;55064;49.636;12.164;2023-07-31T18:41:05;21.29;61.00
68248;SHT30;55064;49.636;12.164;2023-07-31T18:43:31;21.21;62.69
68248;SHT30;55064;49.636;12.164;2023-07-31T18:45:58;21.10;63.68
68248;SHT30;55064;49.636;12.164;2023-07-31T18:48:24;20.91;65.34
68248;SHT30;55064;49.636;12.164;2023-07-31T18:50:52;20.74;66.44
68248;SHT30;55064;49.636;12.164;2023-07-31T18:53:18;20.65;68.10
68248;SHT30;55064;49.636;12.164;2023-07-31T18:55:44;20.56;68.21
68248;SHT30;55064;49.636;12.164;2023-07-31T18:58:09;20.55;68.22
68248;SHT30;55064;49.636;12.164;2023-07-31T19:00:34;20.46;68.53
68248;SHT30;55064;49.636;12.164;2023-07-31T19:03:00;20.38;68.36
68248;SHT30;55064;49.636;12.164;2023-07-31T19:05:25;20.28;67.34
68248;SHT30;55064;49.636;12.164;2023-07-31T19:07:54;20.21;67.44
68248;SHT30;55064;49.636;12.164;2023-07-31T19:10:22;20.14;67.61
68248;SHT30;55064;49.636;12.164;2023-07-31T19:12:47;20.12;67.32
68248;SHT30;55064;49.636;12.164;2023-07-31T19:15:12;20.17;65.80
68248;SHT30;55064;49.636;12.164;2023-07-31T19:17:38;20.18;65.43
68248;SHT30;55064;49.636;12.164;2023-07-31T19:20:04;20.12;65.40
68248;SHT30;55064;49.636;12.164;2023-07-31T19:22:31;20.12;65.58
68248;SHT30;55064;49.636;12.164;2023-07-31T19:24:56;20.15;65.89
68248;SHT30;55064;49.636;12.164;2023-07-31T19:27:22;20.19;66.15
68248;SHT30;55064;49.636;12.164;2023-07-31T19:29:47;20.18;65.90
68248;SHT30;55064;49.636;12.164;2023-07-31T19:32:12;20.14;66.02
68248;SHT30;55064;49.636;12.164;2023-07-31T19:34:41;20.12;65.74
68248;SHT30;55064;49.636;12.164;2023-07-31T19:37:06;20.21;65.64
68248;SHT30;55064;49.636;12.164;2023-07-31T19:39:31;20.12;65.69
68248;SHT30;55064;49.636;12.164;2023-07-31T19:41:59;20.01;65.92
68248;SHT30;55064;49.636;12.164;2023-07-31T19:44:26;19.97;65.73
68248;SHT30;55064;49.636;12.164;2023-07-31T19:46:54;19.98;65.81
68248;SHT30;55064;49.636;12.164;2023-07-31T19:49:30;19.97;65.64
68248;SHT30;55064;49.636;12.164;2023-07-31T19:52:03;19.88;65.85
68248;SHT30;55064;49.636;12.164;2023-07-31T19:54:42;19.83;65.90
68248;SHT30;55064;49.636;12.164;2023-07-31T19:57:09;19.80;66.02
68248;SHT30;55064;49.636;12.164;2023-07-31T19:59:35;19.78;66.17
68248;SHT30;55064;49.636;12.164;2023-07-31T20:02:03;19.80;65.91
68248;SHT30;55064;49.636;12.164;2023-07-31T20:04:41;19.84;65.77
68248;SHT30;55064;49.636;12.164;2023-07-31T20:07:07;19.83;65.73
68248;SHT30;55064;49.636;12.164;2023-07-31T20:09:48;19.80;65.93